createdAt,value
2018-01-07T00:00:17.021Z,99.91
2018-01-07T00:01:26.128Z,99.91
2018-01-07T00:02:34.955Z,99.99
2018-01-07T00:03:43.782Z,99.91
2018-01-07T00:04:52.884Z,99.99
2018-01-07T00:06:01.709Z,99.25
2018-01-07T00:07:10.538Z,99.99
2018-01-07T00:08:19.467Z,99.99
2018-01-07T00:09:28.292Z,99.99
2018-01-07T00:10:37.121Z,99.63
2018-01-07T00:11:45.948Z,99.63
2018-01-07T00:12:54.776Z,99.99
2018-01-07T00:14:03.758Z,99.99
2018-01-07T00:15:12.581Z,99.99
2018-01-07T00:16:21.411Z,99.99
2018-01-07T00:17:30.249Z,99.53
2018-01-07T00:18:39.078Z,99.99
2018-01-07T00:19:47.905Z,99.91
2018-01-07T00:20:56.733Z,99.82
2018-01-07T00:22:05.561Z,99.99
2018-01-07T00:23:14.666Z,99.82
2018-01-07T00:24:23.492Z,98.91
2018-01-07T00:25:32.427Z,99.99
2018-01-07T00:26:41.803Z,99.91
2018-01-07T00:27:50.630Z,98.21
2018-01-07T00:28:59.460Z,99.99
2018-01-07T00:30:08.287Z,99.72
2018-01-07T00:31:17.315Z,99.91
2018-01-07T00:32:26.140Z,99.91
2018-01-07T00:33:34.966Z,98.96
2018-01-07T00:34:43.794Z,99.99
2018-01-07T00:35:52.620Z,99.99
2018-01-07T00:37:01.498Z,99.96
2018-01-07T00:38:10.327Z,99.99
2018-01-07T00:39:19.423Z,99.99
2018-01-07T00:40:28.525Z,99.99
2018-01-07T00:41:37.352Z,99.86
2018-01-07T00:42:46.183Z,99.48
2018-01-07T00:43:55.010Z,99.96
2018-01-07T00:45:03.837Z,99.48
2018-01-07T00:46:12.663Z,99.77
2018-01-07T00:47:21.489Z,99.86
2018-01-07T00:48:30.568Z,99.77
2018-01-07T00:49:39.392Z,99.86
2018-01-07T00:50:48.218Z,99.77
2018-01-07T00:51:57.046Z,99.86
2018-01-07T00:53:05.872Z,99.99
2018-01-07T00:54:14.949Z,99.48
2018-01-07T00:55:23.774Z,99.99
2018-01-07T00:56:32.602Z,99.86
2018-01-07T00:57:41.429Z,99.58
2018-01-07T00:58:50.256Z,99.86
2018-01-07T00:59:59.083Z,98.72
2018-01-07T01:01:07.912Z,99.96
2018-01-07T01:02:16.738Z,99.1
2018-01-07T01:03:25.564Z,99.2
2018-01-07T01:04:34.391Z,99.39
2018-01-07T01:05:43.217Z,98.82
2018-01-07T01:06:52.045Z,99.86
2018-01-07T01:08:00.871Z,98.82
2018-01-07T01:09:09.697Z,99.86
2018-01-07T01:10:18.528Z,99.58
2018-01-07T01:11:27.404Z,99.58
2018-01-07T01:12:36.229Z,99.48
2018-01-07T01:13:45.055Z,99.96
2018-01-07T01:14:53.882Z,99.86
2018-01-07T01:16:02.707Z,98.72
2018-01-07T01:17:11.837Z,99.99
2018-01-07T01:18:20.662Z,99.86
2018-01-07T01:19:29.489Z,99.99
2018-01-07T01:20:38.594Z,99.48
2018-01-07T01:21:47.419Z,99.77
2018-01-07T01:22:56.347Z,99.39
2018-01-07T01:24:05.447Z,98.82
2018-01-07T01:25:14.277Z,99.48
2018-01-07T01:26:23.379Z,99.67
2018-01-07T01:27:32.205Z,99.86
2018-01-07T01:28:41.180Z,99.99
2018-01-07T01:29:50.006Z,99.48
2018-01-07T01:30:58.835Z,99.99
2018-01-07T01:32:07.658Z,98.72
2018-01-07T01:33:16.484Z,99.99
2018-01-07T01:34:25.361Z,99.48
2018-01-07T01:35:34.189Z,99.99
2018-01-07T01:36:43.017Z,99.96
2018-01-07T01:37:51.844Z,98.82
2018-01-07T01:39:00.672Z,99.99
2018-01-07T01:40:09.648Z,99.99
2018-01-07T01:41:18.751Z,99.99
2018-01-07T01:42:27.580Z,99.39
2018-01-07T01:43:36.408Z,99.99
2018-01-07T01:44:45.234Z,99.96
2018-01-07T01:45:54.060Z,99.99
2018-01-07T01:47:02.885Z,99.71
2018-01-07T01:48:11.712Z,99.99
2018-01-07T01:49:20.539Z,99.99
2018-01-07T01:50:29.367Z,99.99
2018-01-07T01:51:38.189Z,99.9
2018-01-07T01:52:47.016Z,99.33
2018-01-07T01:53:55.841Z,99.99
2018-01-07T01:55:04.668Z,99.71
2018-01-07T01:56:13.778Z,99.99
2018-01-07T01:57:22.752Z,99.99
2018-01-07T01:58:31.582Z,99.99
2018-01-07T01:59:40.403Z,99.99
2018-01-07T02:00:49.237Z,99.71
2018-01-07T02:01:58.059Z,99.99
2018-01-07T02:03:07.186Z,99.99
2018-01-07T02:04:16.012Z,99.99
2018-01-07T02:05:24.838Z,99.99
2018-01-07T02:06:33.664Z,99.99
2018-01-07T02:07:42.489Z,99.99
2018-01-07T02:08:51.462Z,99.99
2018-01-07T02:10:00.288Z,98.86
2018-01-07T02:11:09.114Z,99.99
2018-01-07T02:12:17.945Z,99.99
2018-01-07T02:13:26.770Z,99.99
2018-01-07T02:14:35.699Z,99.99
2018-01-07T02:15:44.525Z,99.99
2018-01-07T02:16:53.352Z,99.99
2018-01-07T02:18:02.471Z,99.99
2018-01-07T02:19:11.295Z,99.99
2018-01-07T02:20:20.173Z,99.99
2018-01-07T02:21:28.995Z,99.99
2018-01-07T02:22:37.819Z,99.43
2018-01-07T02:23:46.643Z,99.99
2018-01-07T02:24:55.470Z,99.99
2018-01-07T02:26:04.296Z,99.99
2018-01-07T02:27:13.120Z,99.99
2018-01-07T02:28:21.948Z,99.99
2018-01-07T02:29:30.782Z,99.99
2018-01-07T02:30:39.602Z,99.99
2018-01-07T02:31:48.433Z,99.99
2018-01-07T02:32:57.258Z,99.99
2018-01-07T02:34:06.085Z,99.99
2018-01-07T02:35:14.912Z,99.99
2018-01-07T02:36:24.011Z,99.99
2018-01-07T02:37:33.217Z,99.99
2018-01-07T02:38:42.043Z,99.99
2018-01-07T02:39:50.867Z,99.99
2018-01-07T02:40:59.693Z,99.99
2018-01-07T02:42:08.523Z,99.99
2018-01-07T02:43:17.400Z,99.99
2018-01-07T02:44:26.227Z,99.99
2018-01-07T02:45:35.059Z,99.99
2018-01-07T02:46:43.886Z,99.99
2018-01-07T02:47:52.708Z,99.9
2018-01-07T02:49:01.536Z,99.99
2018-01-07T02:50:10.361Z,99.99
2018-01-07T02:51:19.188Z,99.99
2018-01-07T02:52:28.014Z,99.99
2018-01-07T02:53:37.113Z,99.99
2018-01-07T02:54:45.988Z,99.99
2018-01-07T02:55:54.815Z,99.99
2018-01-07T02:57:03.640Z,99.99
2018-01-07T02:58:12.466Z,99.99
2018-01-07T02:59:21.575Z,99.99
2018-01-07T03:00:30.401Z,99.99
2018-01-07T03:01:39.223Z,99.99
2018-01-07T03:02:48.050Z,99.99
2018-01-07T03:03:56.876Z,99.99
2018-01-07T03:05:05.707Z,99.99
2018-01-07T03:06:14.527Z,99.99
2018-01-07T03:07:23.353Z,99.99
2018-01-07T03:08:32.179Z,99.99
2018-01-07T03:09:41.010Z,99.99
2018-01-07T03:10:50.108Z,99.99
2018-01-07T03:11:58.935Z,99.99
2018-01-07T03:13:07.757Z,99.99
2018-01-07T03:14:16.583Z,99.99
2018-01-07T03:15:25.406Z,99.99
2018-01-07T03:16:34.231Z,99.99
2018-01-07T03:17:43.159Z,99.99
2018-01-07T03:18:51.985Z,99.99
2018-01-07T03:20:00.809Z,99.85
2018-01-07T03:21:09.635Z,99.99
2018-01-07T03:22:18.458Z,99.99
2018-01-07T03:23:27.343Z,99.99
2018-01-07T03:24:36.162Z,99.99
2018-01-07T03:25:44.984Z,99.99
2018-01-07T03:26:53.810Z,99.99
2018-01-07T03:28:02.636Z,99.99
2018-01-07T03:29:11.710Z,99.99
2018-01-07T03:30:20.810Z,99.99
2018-01-07T03:31:29.642Z,99.99
2018-01-07T03:32:38.465Z,99.99
2018-01-07T03:33:47.564Z,99.99
2018-01-07T03:34:56.389Z,99.99
2018-01-07T03:36:05.215Z,99.95
2018-01-07T03:37:14.040Z,99.99
2018-01-07T03:38:22.865Z,99.99
2018-01-07T03:39:31.691Z,99.99
2018-01-07T03:40:40.916Z,99.99
2018-01-07T03:41:49.744Z,99.99
2018-01-07T03:42:58.569Z,99.99
2018-01-07T03:44:07.394Z,99.99
2018-01-07T03:45:16.494Z,99.99
2018-01-07T03:46:25.318Z,99.99
2018-01-07T03:47:34.144Z,99.99
2018-01-07T03:48:42.970Z,99.99
2018-01-07T03:49:51.796Z,99.99
2018-01-07T03:51:00.619Z,99.99
2018-01-07T03:52:09.446Z,99.99
2018-01-07T03:53:18.271Z,99.99
2018-01-07T03:54:27.098Z,99.99
2018-01-07T03:55:35.924Z,99.99
2018-01-07T03:56:44.748Z,99.99
2018-01-07T03:57:53.624Z,99.99
2018-01-07T03:59:02.725Z,99.99
2018-01-07T04:00:11.549Z,99.99
2018-01-07T04:01:20.376Z,99.99
2018-01-07T04:02:29.479Z,99.99
2018-01-07T04:03:38.349Z,99.99
2018-01-07T04:04:47.174Z,99.95
2018-01-07T04:05:56.002Z,99.38
2018-01-07T04:07:04.824Z,99.95
2018-01-07T04:08:13.650Z,99.99
2018-01-07T04:09:22.625Z,99.99
2018-01-07T04:10:31.450Z,99.99
2018-01-07T04:11:40.276Z,99.99
2018-01-07T04:12:49.375Z,99.95
2018-01-07T04:13:58.198Z,99.99
2018-01-07T04:15:07.324Z,99.48
2018-01-07T04:16:16.148Z,99.99
2018-01-07T04:17:24.974Z,99.95
2018-01-07T04:18:33.799Z,99.99
2018-01-07T04:19:42.619Z,99.99
2018-01-07T04:20:51.445Z,99.99
2018-01-07T04:22:00.270Z,99.95
2018-01-07T04:23:09.369Z,99.99
2018-01-07T04:24:18.194Z,99.24
2018-01-07T04:25:27.017Z,99.99
2018-01-07T04:26:36.164Z,99.43
2018-01-07T04:27:44.991Z,99.8
2018-01-07T04:28:53.813Z,99.99
2018-01-07T04:30:02.650Z,99.76
2018-01-07T04:31:11.466Z,99.99
2018-01-07T04:32:20.292Z,99.99
2018-01-07T04:33:29.117Z,99.99
2018-01-07T04:34:37.943Z,99.24
2018-01-07T04:35:46.768Z,99.99
2018-01-07T04:36:55.590Z,99.99
2018-01-07T04:38:04.565Z,99.99
2018-01-07T04:39:13.390Z,99.99
2018-01-07T04:40:22.217Z,99.99
2018-01-07T04:41:31.044Z,99.99
2018-01-07T04:42:40.430Z,99.29
2018-01-07T04:43:49.257Z,99.99
2018-01-07T04:44:58.079Z,99.99
2018-01-07T04:46:06.903Z,99.99
2018-01-07T04:47:15.729Z,99.99
2018-01-07T04:48:24.826Z,99.8
2018-01-07T04:49:33.751Z,99.8
2018-01-07T04:50:42.575Z,99.99
2018-01-07T04:51:51.398Z,99.9
2018-01-07T04:53:00.499Z,99.9
2018-01-07T04:54:09.324Z,99.43
2018-01-07T04:55:18.248Z,99.99
2018-01-07T04:56:27.072Z,99.99
2018-01-07T04:57:35.896Z,99.9
2018-01-07T04:58:44.721Z,99.99
2018-01-07T04:59:53.820Z,99.8
2018-01-07T05:01:02.746Z,99.52
2018-01-07T05:02:11.570Z,99.71
2018-01-07T05:03:20.392Z,99.99
2018-01-07T05:04:29.216Z,99.99
2018-01-07T05:05:38.040Z,99.62
2018-01-07T05:06:46.965Z,99.71
2018-01-07T05:07:55.791Z,99.9
2018-01-07T05:09:04.616Z,99.99
2018-01-07T05:10:13.442Z,99.99
2018-01-07T05:11:22.542Z,99.99
2018-01-07T05:12:31.465Z,99.99
2018-01-07T05:13:40.571Z,99.99
2018-01-07T05:14:49.674Z,99.9
2018-01-07T05:15:58.492Z,98.86
2018-01-07T05:17:07.316Z,99.99
2018-01-07T05:18:16.240Z,99.9
2018-01-07T05:19:25.064Z,99.9
2018-01-07T05:20:33.889Z,99.8
2018-01-07T05:21:42.712Z,99.33
2018-01-07T05:22:51.537Z,99.43
2018-01-07T05:24:00.512Z,99.33
2018-01-07T05:25:09.336Z,99.99
2018-01-07T05:26:18.715Z,99.62
2018-01-07T05:27:27.538Z,99.62
2018-01-07T05:28:36.926Z,99.52
2018-01-07T05:29:45.901Z,99.8
2018-01-07T05:30:54.997Z,99.99
2018-01-07T05:32:03.822Z,99.43
2018-01-07T05:33:12.644Z,99.43
2018-01-07T05:34:21.471Z,99.9
2018-01-07T05:35:30.395Z,99.52
2018-01-07T05:36:39.220Z,99.62
2018-01-07T05:37:48.043Z,99.62
2018-01-07T05:38:56.868Z,99.43
2018-01-07T05:40:05.695Z,99.52
2018-01-07T05:41:14.618Z,99.62
2018-01-07T05:42:23.441Z,99.43
2018-01-07T05:43:32.267Z,99.71
2018-01-07T05:44:41.089Z,99.8
2018-01-07T05:45:49.914Z,99.52
2018-01-07T05:46:58.890Z,99.62
2018-01-07T05:48:07.718Z,99.52
2018-01-07T05:49:16.543Z,99.62
2018-01-07T05:50:25.367Z,99.05
2018-01-07T05:51:34.188Z,99.62
2018-01-07T05:52:43.063Z,98.67
2018-01-07T05:53:51.884Z,99.24
2018-01-07T05:55:00.708Z,99.71
2018-01-07T05:56:09.531Z,98.96
2018-01-07T05:57:18.354Z,98.58
2018-01-07T05:58:27.328Z,99.15
2018-01-07T05:59:36.153Z,98.77
2018-01-07T06:00:44.977Z,99.05
2018-01-07T06:01:53.802Z,98.58
2018-01-07T06:03:02.899Z,99
2018-01-07T06:04:11.823Z,98.96
2018-01-07T06:05:20.648Z,99.28
2018-01-07T06:06:29.472Z,99.05
2018-01-07T06:07:38.297Z,98.77
2018-01-07T06:08:47.120Z,98.77
2018-01-07T06:09:56.245Z,98.43
2018-01-07T06:11:05.070Z,98.71
2018-01-07T06:12:13.895Z,99.24
2018-01-07T06:13:22.722Z,98.62
2018-01-07T06:14:31.546Z,98.33
2018-01-07T06:15:40.671Z,98.77
2018-01-07T06:16:49.772Z,98.48
2018-01-07T06:17:58.595Z,98.62
2018-01-07T06:19:07.422Z,98.62
2018-01-07T06:20:16.245Z,98.43
2018-01-07T06:21:25.170Z,98.52
2018-01-07T06:22:34.031Z,98.77
2018-01-07T06:23:42.820Z,98.77
2018-01-07T06:24:51.644Z,98.62
2018-01-07T06:26:00.471Z,98.24
2018-01-07T06:27:09.403Z,98.52
2018-01-07T06:28:18.524Z,99
2018-01-07T06:29:27.349Z,98.52
2018-01-07T06:30:36.448Z,98.43
2018-01-07T06:31:45.272Z,98.43
2018-01-07T06:32:54.197Z,98.71
2018-01-07T06:34:03.020Z,98.33
2018-01-07T06:35:11.845Z,98.43
2018-01-07T06:36:20.668Z,98.14
2018-01-07T06:37:29.494Z,98.14
2018-01-07T06:38:38.316Z,97.67
2018-01-07T06:39:47.423Z,98.33
2018-01-07T06:40:56.250Z,98.14
2018-01-07T06:42:05.076Z,97.39
2018-01-07T06:43:13.906Z,98.43
2018-01-07T06:44:22.880Z,97.86
2018-01-07T06:45:31.702Z,98.14
2018-01-07T06:46:40.801Z,97.58
2018-01-07T06:47:49.624Z,97.67
2018-01-07T06:48:58.447Z,97.58
2018-01-07T06:50:07.271Z,97.67
2018-01-07T06:51:16.099Z,98.14
2018-01-07T06:52:24.926Z,97.58
2018-01-07T06:53:33.752Z,97.77
2018-01-07T06:54:42.574Z,97.77
2018-01-07T06:55:51.974Z,97.96
2018-01-07T06:57:00.795Z,97.58
2018-01-07T06:58:09.623Z,98.05
2018-01-07T06:59:18.446Z,97.86
2018-01-07T07:00:27.320Z,97.49
2018-01-07T07:01:36.098Z,97.77
2018-01-07T07:02:44.920Z,97.39
2018-01-07T07:03:53.745Z,97.3
2018-01-07T07:05:02.572Z,97.86
2018-01-07T07:06:11.397Z,97.58
2018-01-07T07:07:20.644Z,96.92
2018-01-07T07:08:29.468Z,97.11
2018-01-07T07:09:38.293Z,97.58
2018-01-07T07:10:47.120Z,96.83
2018-01-07T07:11:55.944Z,97.3
2018-01-07T07:13:05.044Z,97.58
2018-01-07T07:14:13.867Z,96.83
2018-01-07T07:15:22.692Z,96.83
2018-01-07T07:16:31.520Z,96.83
2018-01-07T07:17:40.614Z,96.92
2018-01-07T07:18:49.588Z,96.92
2018-01-07T07:19:58.414Z,96.83
2018-01-07T07:21:07.238Z,96.73
2018-01-07T07:22:16.066Z,96.73
2018-01-07T07:23:24.890Z,96.92
2018-01-07T07:24:33.715Z,96.54
2018-01-07T07:25:42.539Z,96.54
2018-01-07T07:26:51.364Z,96.64
2018-01-07T07:28:00.191Z,95.69
2018-01-07T07:29:09.010Z,96.26
2018-01-07T07:30:17.837Z,96.26
2018-01-07T07:31:26.660Z,96.54
2018-01-07T07:32:35.486Z,96.35
2018-01-07T07:33:44.585Z,96.07
2018-01-07T07:34:53.463Z,96.07
2018-01-07T07:36:02.338Z,95.5
2018-01-07T07:37:11.162Z,95.5
2018-01-07T07:38:19.986Z,95.78
2018-01-07T07:39:28.812Z,95.69
2018-01-07T07:40:37.642Z,95.69
2018-01-07T07:41:46.768Z,95.5
2018-01-07T07:42:55.642Z,96.45
2018-01-07T07:44:04.468Z,95.69
2018-01-07T07:45:13.292Z,95.78
2018-01-07T07:46:22.115Z,95.97
2018-01-07T07:47:30.939Z,95.78
2018-01-07T07:48:39.762Z,95.88
2018-01-07T07:49:48.589Z,95.69
2018-01-07T07:50:57.691Z,95.97
2018-01-07T07:52:06.515Z,95.97
2018-01-07T07:53:15.340Z,95.21
2018-01-07T07:54:24.166Z,95.59
2018-01-07T07:55:33.055Z,95.59
2018-01-07T07:56:41.890Z,95.88
2018-01-07T07:57:50.715Z,95.5
2018-01-07T07:58:59.540Z,95.12
2018-01-07T08:00:08.405Z,95.5
2018-01-07T08:01:17.191Z,95.69
2018-01-07T08:02:26.014Z,95.69
2018-01-07T08:03:34.837Z,95.31
2018-01-07T08:04:43.663Z,95.5
2018-01-07T08:05:52.489Z,95.4
2018-01-07T08:07:01.594Z,95.5
2018-01-07T08:08:10.420Z,96.07
2018-01-07T08:09:19.249Z,95.12
2018-01-07T08:10:28.350Z,95.5
2018-01-07T08:11:37.174Z,95.78
2018-01-07T08:12:45.998Z,95.12
2018-01-07T08:13:54.822Z,95.5
2018-01-07T08:15:03.648Z,95.78
2018-01-07T08:16:12.473Z,95.69
2018-01-07T08:17:21.306Z,95.59
2018-01-07T08:18:30.144Z,95.21
2018-01-07T08:19:38.970Z,95.5
2018-01-07T08:20:47.794Z,95.59
2018-01-07T08:21:56.896Z,95.5
2018-01-07T08:23:05.720Z,95.31
2018-01-07T08:24:14.819Z,95.59
2018-01-07T08:25:23.648Z,95.5
2018-01-07T08:26:32.471Z,95.5
2018-01-07T08:27:41.301Z,95.31
2018-01-07T08:28:50.126Z,95.31
2018-01-07T08:29:59.202Z,95.69
2018-01-07T08:31:08.028Z,95.59
2018-01-07T08:32:16.853Z,95.12
2018-01-07T08:33:25.676Z,95.59
2018-01-07T08:34:34.503Z,95.4
2018-01-07T08:35:43.328Z,95.5
2018-01-07T08:36:52.150Z,95.4
2018-01-07T08:38:00.974Z,95.69
2018-01-07T08:39:09.802Z,95.4
2018-01-07T08:40:18.626Z,95.69
2018-01-07T08:41:27.751Z,95.69
2018-01-07T08:42:36.578Z,95.59
2018-01-07T08:43:45.401Z,95.69
2018-01-07T08:44:54.227Z,95.31
2018-01-07T08:46:03.051Z,95.4
2018-01-07T08:47:12.026Z,94.93
2018-01-07T08:48:20.849Z,95.4
2018-01-07T08:49:29.673Z,95.5
2018-01-07T08:50:38.498Z,95.12
2018-01-07T08:51:47.323Z,95.03
2018-01-07T08:52:56.300Z,95.21
2018-01-07T08:54:05.124Z,95.12
2018-01-07T08:55:13.948Z,94.84
2018-01-07T08:56:22.774Z,94.65
2018-01-07T08:57:31.873Z,94.84
2018-01-07T08:58:40.697Z,94.93
2018-01-07T08:59:49.797Z,95.12
2018-01-07T09:00:58.620Z,94.56
2018-01-07T09:02:07.747Z,94.74
2018-01-07T09:03:16.572Z,94.56
2018-01-07T09:04:25.841Z,94.84
2018-01-07T09:05:34.668Z,94.18
2018-01-07T09:06:43.561Z,94.46
2018-01-07T09:07:52.385Z,94.56
2018-01-07T09:09:01.208Z,94.65
2018-01-07T09:10:10.035Z,94.65
2018-01-07T09:11:18.863Z,94.37
2018-01-07T09:12:27.965Z,94.27
2018-01-07T09:13:36.790Z,94.46
2018-01-07T09:14:45.613Z,94.65
2018-01-07T09:15:54.589Z,94.46
2018-01-07T09:17:03.431Z,94.46
2018-01-07T09:18:12.352Z,94.46
2018-01-07T09:19:21.179Z,94.27
2018-01-07T09:20:30.004Z,94.46
2018-01-07T09:21:39.153Z,94.37
2018-01-07T09:22:48.249Z,94.56
2018-01-07T09:23:57.073Z,94.46
2018-01-07T09:25:05.901Z,94.27
2018-01-07T09:26:14.725Z,94.27
2018-01-07T09:27:23.701Z,94.65
2018-01-07T09:28:32.527Z,94.46
2018-01-07T09:29:41.351Z,94.37
2018-01-07T09:30:50.185Z,94.65
2018-01-07T09:31:59.010Z,94.56
2018-01-07T09:33:07.884Z,94.46
2018-01-07T09:34:16.710Z,94.46
2018-01-07T09:35:25.535Z,94.18
2018-01-07T09:36:34.358Z,94.65
2018-01-07T09:37:43.183Z,94.65
2018-01-07T09:38:52.216Z,94.65
2018-01-07T09:40:01.036Z,94.65
2018-01-07T09:41:09.862Z,94.56
2018-01-07T09:42:18.960Z,94.27
2018-01-07T09:43:27.788Z,94.46
2018-01-07T09:44:36.612Z,94.37
2018-01-07T09:45:45.438Z,94.46
2018-01-07T09:46:54.260Z,94.08
2018-01-07T09:48:03.087Z,94.65
2018-01-07T09:49:11.914Z,94.74
2018-01-07T09:50:21.040Z,94.46
2018-01-07T09:51:30.137Z,93.89
2018-01-07T09:52:38.966Z,94.18
2018-01-07T09:53:48.366Z,94.42
2018-01-07T09:54:57.250Z,94.51
2018-01-07T09:56:06.176Z,94.51
2018-01-07T09:57:15.005Z,94.89
2018-01-07T09:58:24.103Z,94.18
2018-01-07T09:59:32.927Z,94.74
2018-01-07T10:00:41.755Z,94.42
2018-01-07T10:01:50.880Z,94.74
2018-01-07T10:02:59.715Z,94.51
2018-01-07T10:04:08.807Z,93.94
2018-01-07T10:05:17.632Z,94.6
2018-01-07T10:06:26.458Z,94.98
2018-01-07T10:07:35.384Z,94.6
2018-01-07T10:08:44.209Z,94.6
2018-01-07T10:09:53.306Z,94.89
2018-01-07T10:11:02.128Z,95.07
2018-01-07T10:12:10.954Z,94.7
2018-01-07T10:13:19.876Z,94.51
2018-01-07T10:14:28.986Z,94.7
2018-01-07T10:15:38.089Z,95.93
2018-01-07T10:16:46.916Z,95.45
2018-01-07T10:17:55.794Z,95.93
2018-01-07T10:19:05.005Z,95.64
2018-01-07T10:20:13.826Z,94.79
2018-01-07T10:21:22.656Z,95.07
2018-01-07T10:22:31.482Z,95.07
2018-01-07T10:23:40.306Z,95.93
2018-01-07T10:24:49.372Z,95.55
2018-01-07T10:25:58.206Z,95.45
2018-01-07T10:27:07.040Z,95.36
2018-01-07T10:28:16.418Z,95.74
2018-01-07T10:29:25.518Z,95.55
2018-01-07T10:30:34.344Z,95.74
2018-01-07T10:31:43.172Z,95.55
2018-01-07T10:32:51.995Z,95.83
2018-01-07T10:34:00.823Z,96.4
2018-01-07T10:35:09.650Z,96.21
2018-01-07T10:36:18.475Z,95.74
2018-01-07T10:37:27.299Z,95.93
2018-01-07T10:38:36.125Z,95.74
2018-01-07T10:39:44.951Z,95.74
2018-01-07T10:40:53.779Z,96.4
2018-01-07T10:42:02.758Z,95.74
2018-01-07T10:43:11.584Z,95.93
2018-01-07T10:44:20.409Z,96.97
2018-01-07T10:45:29.506Z,96.69
2018-01-07T10:46:38.608Z,95.83
2018-01-07T10:47:47.535Z,96.59
2018-01-07T10:48:56.635Z,96.59
2018-01-07T10:50:05.459Z,96.88
2018-01-07T10:51:14.286Z,96.97
2018-01-07T10:52:23.113Z,96.59
2018-01-07T10:53:31.987Z,95.74
2018-01-07T10:54:40.816Z,96.59
2018-01-07T10:55:49.644Z,96.88
2018-01-07T10:56:58.469Z,96.88
2018-01-07T10:58:07.295Z,97.06
2018-01-07T10:59:16.121Z,96.78
2018-01-07T11:00:24.948Z,96.78
2018-01-07T11:01:33.774Z,97.06
2018-01-07T11:02:42.600Z,96.59
2018-01-07T11:03:51.428Z,97.82
2018-01-07T11:05:00.552Z,97.49
2018-01-07T11:06:09.381Z,98.06
2018-01-07T11:07:18.206Z,98.25
2018-01-07T11:08:27.033Z,98.06
2018-01-07T11:09:35.858Z,97.87
2018-01-07T11:10:45.010Z,97.77
2018-01-07T11:11:54.112Z,98.72
2018-01-07T11:13:02.942Z,98.82
2018-01-07T11:14:11.766Z,98.63
2018-01-07T11:15:20.592Z,98.82
2018-01-07T11:16:29.418Z,98.72
2018-01-07T11:17:38.246Z,98.44
2018-01-07T11:18:47.074Z,98.44
2018-01-07T11:19:55.900Z,98.82
2018-01-07T11:21:04.728Z,99.99
2018-01-07T11:22:13.653Z,99.29
2018-01-07T11:23:22.482Z,98.72
2018-01-07T11:24:31.308Z,99.48
2018-01-07T11:25:40.133Z,99.29
2018-01-07T11:26:48.962Z,99.76
2018-01-07T11:27:58.161Z,99.57
2018-01-07T11:29:06.991Z,99.38
2018-01-07T11:30:15.818Z,99.95
2018-01-07T11:31:24.644Z,99.57
2018-01-07T11:32:33.472Z,99.76
2018-01-07T11:33:42.302Z,99.76
2018-01-07T11:34:51.127Z,99.38
2018-01-07T11:35:59.954Z,99.66
2018-01-07T11:37:08.782Z,99.99
2018-01-07T11:38:17.609Z,99.85
2018-01-07T11:39:26.488Z,99.99
2018-01-07T11:40:35.311Z,99.66
2018-01-07T11:41:44.135Z,99.99
2018-01-07T11:42:52.961Z,99.99
2018-01-07T11:44:02.065Z,99.99
2018-01-07T11:45:10.892Z,99.99
2018-01-07T11:46:19.725Z,99.99
2018-01-07T11:47:28.955Z,99.99
2018-01-07T11:48:38.336Z,99.99
2018-01-07T11:49:47.541Z,99.99
2018-01-07T11:50:56.524Z,99.99
2018-01-07T11:52:05.352Z,99.99
2018-01-07T11:53:14.180Z,99.99
2018-01-07T11:54:23.005Z,99.99
2018-01-07T11:55:32.103Z,99.99
2018-01-07T11:56:40.936Z,99.99
2018-01-07T11:57:49.763Z,99.99
2018-01-07T11:58:58.586Z,99.99
2018-01-07T12:00:07.413Z,99.99
2018-01-07T12:01:16.254Z,99.99
2018-01-07T12:02:25.270Z,99.99
2018-01-07T12:03:34.129Z,99.99
2018-01-07T12:04:43.479Z,99.99
2018-01-07T12:05:52.311Z,99.99
2018-01-07T12:07:01.140Z,99.99
2018-01-07T12:08:10.113Z,99.99
2018-01-07T12:09:18.935Z,99.99
2018-01-07T12:10:27.762Z,99.99
2018-01-07T12:11:36.598Z,99.99
2018-01-07T12:12:45.697Z,99.99
2018-01-07T12:13:54.572Z,99.99
2018-01-07T12:15:03.400Z,99.99
2018-01-07T12:16:12.226Z,99.99
2018-01-07T12:17:21.055Z,99.99
2018-01-07T12:18:29.878Z,99.99
2018-01-07T12:19:38.956Z,99.99
2018-01-07T12:20:47.782Z,99.99
2018-01-07T12:21:56.611Z,99.99
2018-01-07T12:23:05.438Z,99.99
2018-01-07T12:24:14.299Z,99.99
2018-01-07T12:25:23.336Z,99.99
2018-01-07T12:26:32.175Z,99.99
2018-01-07T12:27:41.008Z,99.99
2018-01-07T12:28:49.840Z,99.99
2018-01-07T12:29:58.675Z,99.99
2018-01-07T12:31:07.651Z,99.99
2018-01-07T12:32:16.480Z,99.99
2018-01-07T12:33:25.305Z,99.99
2018-01-07T12:34:34.610Z,99.99
2018-01-07T12:35:43.440Z,99.99
2018-01-07T12:36:52.415Z,99.99
2018-01-07T12:38:01.272Z,99.99
2018-01-07T12:39:10.386Z,99.99
2018-01-07T12:40:19.218Z,99.99
2018-01-07T12:41:28.046Z,99.99
2018-01-07T12:42:37.298Z,99.99
2018-01-07T12:43:46.124Z,99.99
2018-01-07T12:44:54.952Z,99.99
2018-01-07T12:46:03.779Z,99.99
2018-01-07T12:47:12.607Z,99.99
2018-01-07T12:48:21.833Z,99.99
2018-01-07T12:49:30.661Z,99.99
2018-01-07T12:50:39.493Z,99.99
2018-01-07T12:51:48.344Z,99.99
2018-01-07T12:52:57.182Z,99.99
2018-01-07T12:54:06.155Z,99.99
2018-01-07T12:55:14.986Z,99.99
2018-01-07T12:56:23.817Z,99.99
2018-01-07T12:57:32.676Z,99.99
2018-01-07T12:58:41.471Z,99.99
2018-01-07T12:59:50.399Z,99.99
2018-01-07T13:00:59.238Z,99.99
2018-01-07T13:02:08.076Z,99.99
2018-01-07T13:03:16.906Z,99.99
2018-01-07T13:04:25.733Z,99.99
2018-01-07T13:05:34.720Z,99.99
2018-01-07T13:06:43.546Z,99.99
2018-01-07T13:07:52.373Z,99.99
2018-01-07T13:09:01.504Z,99.99
2018-01-07T13:10:10.331Z,99.99
2018-01-07T13:11:19.536Z,99.99
2018-01-07T13:12:28.364Z,99.99
2018-01-07T13:13:37.468Z,99.99
2018-01-07T13:14:46.572Z,99.99
2018-01-07T13:15:55.409Z,99.99
2018-01-07T13:17:04.548Z,99.99
2018-01-07T13:18:13.387Z,99.99
2018-01-07T13:19:22.214Z,99.99
2018-01-07T13:20:31.042Z,99.99
2018-01-07T13:21:39.869Z,99.99
2018-01-07T13:22:49.001Z,99.99
2018-01-07T13:23:57.850Z,99.99
2018-01-07T13:25:07.687Z,99.99
2018-01-07T13:26:16.829Z,99.99
2018-01-07T13:27:25.675Z,99.99
2018-01-07T13:28:34.703Z,99.99
2018-01-07T13:29:43.534Z,99.99
2018-01-07T13:30:52.362Z,99.99
2018-01-07T13:32:01.208Z,99.99
2018-01-07T13:33:10.035Z,99.99
2018-01-07T13:34:18.861Z,99.99
2018-01-07T13:35:27.690Z,99.99
2018-01-07T13:36:36.516Z,99.99
2018-01-07T13:37:45.348Z,99.99
2018-01-07T13:38:54.178Z,99.99
2018-01-07T13:40:03.329Z,99.99
2018-01-07T13:41:12.156Z,99.99
2018-01-07T13:42:21.289Z,99.99
2018-01-07T13:43:30.094Z,99.99
2018-01-07T13:44:38.920Z,99.99
2018-01-07T13:45:47.850Z,99.99
2018-01-07T13:46:56.678Z,99.99
2018-01-07T13:48:05.506Z,99.99
2018-01-07T13:49:14.333Z,99.99
2018-01-07T13:50:23.159Z,99.99
2018-01-07T13:51:32.136Z,99.99
2018-01-07T13:52:40.962Z,99.99
2018-01-07T13:53:49.789Z,99.99
2018-01-07T13:54:58.618Z,99.99
2018-01-07T13:56:07.445Z,99.99
2018-01-07T13:57:16.703Z,99.99
2018-01-07T13:58:25.530Z,99.99
2018-01-07T13:59:34.360Z,99.99
2018-01-07T14:00:43.187Z,99.99
2018-01-07T14:01:52.016Z,99.99
2018-01-07T14:03:00.947Z,99.99
2018-01-07T14:04:09.775Z,99.99
2018-01-07T14:05:18.605Z,99.99
2018-01-07T14:06:27.431Z,99.99
2018-01-07T14:07:36.259Z,99.99
2018-01-07T14:08:45.085Z,99.99
2018-01-07T14:09:53.921Z,99.99
2018-01-07T14:11:02.744Z,99.99
2018-01-07T14:12:11.571Z,99.99
2018-01-07T14:13:20.399Z,99.99
2018-01-07T14:14:29.227Z,99.99
2018-01-07T14:15:38.055Z,99.99
2018-01-07T14:16:46.887Z,99.99
2018-01-07T14:17:55.717Z,99.99
2018-01-07T14:19:04.844Z,99.99
2018-01-07T14:20:13.725Z,99.99
2018-01-07T14:21:22.559Z,99.99
2018-01-07T14:22:31.662Z,99.99
2018-01-07T14:23:40.492Z,99.99
2018-01-07T14:24:49.323Z,99.53
2018-01-07T14:25:58.256Z,99.34
2018-01-07T14:27:07.087Z,98.87
2018-01-07T14:28:15.918Z,98.39
2018-01-07T14:29:24.751Z,98.39
2018-01-07T14:30:33.586Z,98.11
2018-01-07T14:31:42.719Z,97.35
2018-01-07T14:32:51.554Z,97.4
2018-01-07T14:34:00.390Z,97.4
2018-01-07T14:35:09.222Z,97.12
2018-01-07T14:36:18.056Z,97.16
2018-01-07T14:37:26.943Z,97.16
2018-01-07T14:38:35.775Z,96.97
2018-01-07T14:39:44.885Z,97.64
2018-01-07T14:40:53.719Z,97.64
2018-01-07T14:42:02.551Z,98.3
2018-01-07T14:43:11.533Z,98.68
2018-01-07T14:44:20.367Z,98.72
2018-01-07T14:45:29.196Z,98.63
2018-01-07T14:46:38.030Z,99.1
2018-01-07T14:47:46.861Z,99.1
2018-01-07T14:48:55.692Z,99.39